createdAt,value
2019-05-25T00:01:04.931Z,13.60
2019-05-25T00:03:39.758Z,13.53
2019-05-25T00:06:14.219Z,12.73
2019-05-25T00:08:49.741Z,12.90
2019-05-25T00:11:25.333Z,12.15
2019-05-25T00:14:12.420Z,13.62
2019-05-25T00:16:47.966Z,13.90
2019-05-25T00:19:21.606Z,13.37
2019-05-25T00:21:56.521Z,13.65
2019-05-25T00:24:30.170Z,13.40
2019-05-25T00:27:05.596Z,13.70
2019-05-25T00:29:40.724Z,13.87
2019-05-25T00:32:14.370Z,13.53
2019-05-25T00:34:48.371Z,13.90
2019-05-25T00:37:23.783Z,14.07
2019-05-25T00:39:58.940Z,14.40
2019-05-25T00:42:32.414Z,13.83
2019-05-25T00:45:08.379Z,13.67
2019-05-25T00:47:42.091Z,13.83
2019-05-25T00:50:16.331Z,13.80
2019-05-25T00:52:52.657Z,12.80
2019-05-25T00:55:26.480Z,13.70
2019-05-25T00:58:01.699Z,13.97
2019-05-25T01:00:35.317Z,13.50
2019-05-25T01:03:10.488Z,13.30
2019-05-25T01:05:45.659Z,13.80
2019-05-25T01:08:20.791Z,13.63
2019-05-25T01:10:54.313Z,13.20
2019-05-25T01:13:29.387Z,13.55
2019-05-25T01:16:03.075Z,13.10
2019-05-25T01:18:36.630Z,13.20
2019-05-25T01:21:14.669Z,12.83
2019-05-25T01:23:50.338Z,13.33
2019-05-25T01:26:25.735Z,13.55
2019-05-25T01:29:03.051Z,14.00
2019-05-25T01:31:38.160Z,13.57
2019-05-25T01:34:14.968Z,13.63
2019-05-25T01:36:50.011Z,14.80
2019-05-25T01:39:25.051Z,13.72
2019-05-25T01:41:59.989Z,12.40
2019-05-25T01:44:35.098Z,13.60
2019-05-25T01:47:10.372Z,13.50
2019-05-25T01:49:45.575Z,13.50
2019-05-25T01:52:23.582Z,13.98
2019-05-25T01:55:01.446Z,13.60
2019-05-25T01:57:48.786Z,13.43
2019-05-25T02:00:18.185Z,12.90
2019-05-25T02:02:53.749Z,12.65
2019-05-25T02:05:28.911Z,14.30
2019-05-25T02:08:05.135Z,12.70
2019-05-25T02:10:40.400Z,12.47
2019-05-25T02:13:15.578Z,12.67
2019-05-25T02:15:50.952Z,13.23
2019-05-25T02:18:26.462Z,13.33
2019-05-25T02:21:01.415Z,12.98
2019-05-25T02:23:36.517Z,13.37
2019-05-25T02:26:12.286Z,12.80
2019-05-25T02:28:46.474Z,13.50
2019-05-25T02:31:20.029Z,13.83
2019-05-25T02:33:56.076Z,12.93
2019-05-25T02:36:29.993Z,13.15
2019-05-25T02:39:04.856Z,13.50
2019-05-25T02:41:38.416Z,12.60
2019-05-25T02:44:18.477Z,13.10
2019-05-25T02:46:52.035Z,12.70
2019-05-25T02:49:27.720Z,12.80
2019-05-25T02:52:01.326Z,12.35
2019-05-25T02:54:35.286Z,12.27
2019-05-25T02:57:10.285Z,12.20
2019-05-25T02:59:43.800Z,12.83
2019-05-25T03:02:17.439Z,12.20
2019-05-25T03:04:52.353Z,12.37
2019-05-25T03:07:27.449Z,11.90
2019-05-25T03:10:03.675Z,12.65
2019-05-25T03:12:38.983Z,11.77
2019-05-25T03:15:13.987Z,12.13
2019-05-25T03:17:47.498Z,11.57
2019-05-25T03:20:22.073Z,11.55
2019-05-25T03:22:55.840Z,12.25
2019-05-25T03:25:29.538Z,11.38
2019-05-25T03:28:03.368Z,11.05
2019-05-25T03:30:42.072Z,11.17
2019-05-25T03:33:17.244Z,12.05
2019-05-25T03:35:51.561Z,12.15
2019-05-25T03:38:25.579Z,10.90
2019-05-25T03:41:00.550Z,11.00
2019-05-25T03:43:34.527Z,11.22
2019-05-25T03:46:11.302Z,11.93
2019-05-25T03:48:46.607Z,11.00
2019-05-25T03:51:23.113Z,12.17
2019-05-25T03:53:56.737Z,11.63
2019-05-25T03:56:30.596Z,11.55
2019-05-25T03:59:04.514Z,12.28
2019-05-25T04:01:39.571Z,11.93
2019-05-25T04:04:14.422Z,11.10
2019-05-25T04:06:48.113Z,12.17
2019-05-25T04:09:22.067Z,11.88
2019-05-25T04:11:56.159Z,11.83
2019-05-25T04:14:31.293Z,11.97
2019-05-25T04:17:06.706Z,11.38
2019-05-25T04:19:42.619Z,12.20
2019-05-25T04:22:16.908Z,11.35
2019-05-25T04:24:50.872Z,11.97
2019-05-25T04:27:24.602Z,11.60
2019-05-25T04:29:58.417Z,11.10
2019-05-25T04:32:33.292Z,11.53
2019-05-25T04:35:09.586Z,11.83
2019-05-25T04:37:43.186Z,12.33
2019-05-25T04:40:17.624Z,11.80
2019-05-25T04:42:51.438Z,11.70
2019-05-25T04:45:25.020Z,12.25
2019-05-25T04:47:59.886Z,11.50
2019-05-25T04:50:33.785Z,11.12
2019-05-25T04:53:07.583Z,11.40
2019-05-25T04:55:42.830Z,11.60
2019-05-25T04:58:18.941Z,11.97
2019-05-25T05:00:52.687Z,11.20
2019-05-25T05:03:26.527Z,11.18
2019-05-25T05:06:01.593Z,10.75
2019-05-25T05:08:37.335Z,11.28
2019-05-25T05:11:12.726Z,10.77
2019-05-25T05:14:03.239Z,11.07
2019-05-25T05:16:29.157Z,11.15
2019-05-25T05:19:04.297Z,11.60
2019-05-25T05:21:40.075Z,10.77
2019-05-25T05:24:13.652Z,11.03
2019-05-25T05:26:55.642Z,11.38
2019-05-25T05:29:22.796Z,10.70
2019-05-25T05:31:58.150Z,10.95
2019-05-25T05:34:33.741Z,10.10
2019-05-25T05:37:07.695Z,10.00
2019-05-25T05:39:41.832Z,11.03
2019-05-25T05:42:18.722Z,10.60
2019-05-25T05:44:55.262Z,10.90
2019-05-25T05:47:30.108Z,10.78
2019-05-25T05:50:06.674Z,10.33
2019-05-25T05:52:49.613Z,10.67
2019-05-25T05:55:27.647Z,11.28
2019-05-25T05:58:02.025Z,10.45
2019-05-25T06:00:37.136Z,10.73
2019-05-25T06:03:12.098Z,10.07
2019-05-25T06:05:46.190Z,10.50
2019-05-25T06:08:20.564Z,11.20
2019-05-25T06:10:56.009Z,10.15
2019-05-25T06:13:29.849Z,10.32
2019-05-25T06:16:03.591Z,9.68
2019-05-25T06:18:37.577Z,10.30
2019-05-25T06:21:12.708Z,10.43
2019-05-25T06:23:48.062Z,10.83
2019-05-25T06:26:23.251Z,10.13
2019-05-25T06:28:57.323Z,10.70
2019-05-25T06:31:33.929Z,10.23
2019-05-25T06:34:09.425Z,10.90
2019-05-25T06:36:45.487Z,10.90
2019-05-25T06:39:21.192Z,10.77
2019-05-25T06:41:55.277Z,10.70
2019-05-25T06:44:30.651Z,10.33
2019-05-25T06:47:05.644Z,10.32
2019-05-25T06:49:39.467Z,9.60
2019-05-25T06:52:13.345Z,10.10
2019-05-25T06:54:48.007Z,9.90
2019-05-25T06:57:21.528Z,10.13
2019-05-25T06:59:55.376Z,11.00
2019-05-25T07:02:30.904Z,10.40
2019-05-25T07:05:05.038Z,10.68
2019-05-25T07:07:40.286Z,9.70
2019-05-25T07:10:16.031Z,10.40
2019-05-25T07:12:51.196Z,10.57
2019-05-25T07:15:26.597Z,10.20
2019-05-25T07:18:01.748Z,11.10
2019-05-25T07:20:36.543Z,11.50
2019-05-25T07:23:11.602Z,11.07
2019-05-25T07:25:46.602Z,10.83
2019-05-25T07:28:21.788Z,10.78
2019-05-25T07:30:55.687Z,10.15
2019-05-25T07:33:29.377Z,9.68
2019-05-25T07:36:07.303Z,10.30
2019-05-25T07:38:38.277Z,10.95
2019-05-25T07:41:13.938Z,10.90
2019-05-25T07:43:48.623Z,9.75
2019-05-25T07:46:24.265Z,10.32
2019-05-25T07:48:59.421Z,10.85
2019-05-25T07:51:33.069Z,10.67
2019-05-25T07:54:08.034Z,9.28
2019-05-25T07:56:43.109Z,9.90
2019-05-25T07:59:18.300Z,9.73
2019-05-25T08:01:53.343Z,9.27
2019-05-25T08:04:28.284Z,9.33
2019-05-25T08:07:03.796Z,9.70
2019-05-25T08:09:37.515Z,9.20
2019-05-25T08:12:13.545Z,9.50
2019-05-25T08:14:47.102Z,9.67
2019-05-25T08:17:20.748Z,9.30
2019-05-25T08:19:55.975Z,8.88
2019-05-25T08:22:31.028Z,10.03
2019-05-25T08:25:06.524Z,9.97
2019-05-25T08:27:41.476Z,9.30
2019-05-25T08:30:17.055Z,9.10
2019-05-25T08:32:50.521Z,9.00
2019-05-25T08:38:02.782Z,9.70
2019-05-25T08:40:36.441Z,8.53
2019-05-25T08:43:10.048Z,9.13
2019-05-25T08:45:43.664Z,9.13
2019-05-25T08:48:17.435Z,9.00
2019-05-25T08:50:52.352Z,9.30
2019-05-25T08:53:39.942Z,9.58
2019-05-25T08:56:01.109Z,9.47
2019-05-25T08:58:47.937Z,8.63
2019-05-25T09:01:11.399Z,9.30
2019-05-25T09:03:46.412Z,9.10
2019-05-25T09:06:21.481Z,9.33
2019-05-25T09:08:54.955Z,9.75
2019-05-25T09:11:28.548Z,9.38
2019-05-25T09:14:02.905Z,9.43
2019-05-25T09:16:38.036Z,9.60
2019-05-25T09:19:13.262Z,9.37
2019-05-25T09:22:01.419Z,9.33
2019-05-25T09:24:23.516Z,9.07
2019-05-25T09:26:58.978Z,9.68
2019-05-25T09:29:34.644Z,10.45
2019-05-25T09:35:27.412Z,10.45
2019-05-25T09:38:01.009Z,9.30
2019-05-25T09:40:35.863Z,9.55
2019-05-25T09:43:10.793Z,10.60
2019-05-25T09:45:44.675Z,9.50
2019-05-25T09:48:19.700Z,9.47
2019-05-25T09:50:53.165Z,9.30
2019-05-25T09:53:26.900Z,9.10
2019-05-25T09:56:00.503Z,8.60
2019-05-25T09:58:34.547Z,9.00
2019-05-25T10:01:09.467Z,8.05
2019-05-25T10:03:45.161Z,8.40
2019-05-25T10:06:18.744Z,8.83
2019-05-25T10:08:52.351Z,8.47
2019-05-25T10:11:26.095Z,7.97
2019-05-25T10:14:01.816Z,8.73
2019-05-25T10:16:37.454Z,8.78
2019-05-25T10:19:11.552Z,8.27
2019-05-25T10:21:45.081Z,8.67
2019-05-25T10:24:19.053Z,8.60
2019-05-25T10:26:54.305Z,7.43
2019-05-25T10:29:36.673Z,7.87
2019-05-25T10:32:02.579Z,7.73
2019-05-25T10:34:36.479Z,7.50
2019-05-25T10:37:11.847Z,7.63
2019-05-25T10:39:45.767Z,7.77
2019-05-25T10:42:20.819Z,7.20
2019-05-25T10:44:54.380Z,6.77
2019-05-25T10:47:29.752Z,6.50
2019-05-25T10:50:05.086Z,6.10
2019-05-25T10:52:38.935Z,5.78
2019-05-25T10:55:15.667Z,6.20
2019-05-25T10:57:51.286Z,6.20
2019-05-25T11:00:25.312Z,6.00
2019-05-25T11:02:59.054Z,5.37
2019-05-25T11:05:34.432Z,5.87
2019-05-25T11:08:08.238Z,5.50
2019-05-25T11:10:43.314Z,5.80
2019-05-25T11:13:17.442Z,5.57
2019-05-25T11:15:51.426Z,5.70
2019-05-25T11:18:26.556Z,6.27
2019-05-25T11:21:00.465Z,6.20
2019-05-25T11:23:36.138Z,6.28
2019-05-25T11:26:11.089Z,6.83
2019-05-25T11:28:44.883Z,6.93
2019-05-25T11:31:18.742Z,6.63
2019-05-25T11:33:52.455Z,6.80
2019-05-25T11:36:26.277Z,6.33
2019-05-25T11:39:01.991Z,6.65
2019-05-25T11:41:35.907Z,6.62
2019-05-25T11:44:09.981Z,6.73
2019-05-25T11:46:43.821Z,6.83
2019-05-25T11:49:22.344Z,6.63
2019-05-25T11:51:52.711Z,7.47
2019-05-25T11:54:27.084Z,7.37
2019-05-25T11:57:21.572Z,7.10
2019-05-25T11:59:56.840Z,7.13
2019-05-25T12:02:31.781Z,6.28
2019-05-25T12:05:08.018Z,6.78
2019-05-25T12:07:44.578Z,6.10
2019-05-25T12:10:18.401Z,6.00
2019-05-25T12:12:52.398Z,6.33
2019-05-25T12:15:26.034Z,6.13
2019-05-25T12:18:01.141Z,6.35
2019-05-25T12:20:34.696Z,6.22
2019-05-25T12:23:08.754Z,6.03
2019-05-25T12:25:49.871Z,5.87
2019-05-25T12:28:26.727Z,6.00
2019-05-25T12:31:01.859Z,6.60
2019-05-25T12:33:37.467Z,6.20
2019-05-25T12:36:12.272Z,5.87
2019-05-25T12:38:45.829Z,6.30
2019-05-25T12:41:21.057Z,5.70
2019-05-25T12:43:55.443Z,5.60
2019-05-25T12:46:30.804Z,5.50
2019-05-25T12:49:04.329Z,5.83
2019-05-25T12:51:39.670Z,5.60
2019-05-25T12:54:14.692Z,5.10
2019-05-25T12:56:48.571Z,4.90
2019-05-25T12:59:24.061Z,4.50
2019-05-25T13:01:57.855Z,4.72
2019-05-25T13:04:31.677Z,4.28
2019-05-25T13:07:05.679Z,4.53
2019-05-25T13:09:39.595Z,5.07
2019-05-25T13:12:13.256Z,4.80
2019-05-25T13:14:47.036Z,4.20
2019-05-25T13:17:20.948Z,4.17
2019-05-25T13:19:56.087Z,4.00
2019-05-25T13:22:30.910Z,4.30
2019-05-25T13:25:06.466Z,3.70
2019-05-25T13:27:40.242Z,3.62
2019-05-25T13:30:15.883Z,3.43
2019-05-25T13:32:50.816Z,3.50
2019-05-25T13:35:25.722Z,3.30
2019-05-25T13:37:59.489Z,3.15
2019-05-25T13:40:34.595Z,3.58
2019-05-25T13:43:09.733Z,3.20
2019-05-25T13:45:46.008Z,4.07
2019-05-25T13:48:19.275Z,3.23
2019-05-25T13:50:54.111Z,3.20
2019-05-25T13:53:27.916Z,3.33
2019-05-25T13:56:01.719Z,3.20
2019-05-25T13:58:39.133Z,3.20
2019-05-25T14:01:27.401Z,3.50
2019-05-25T14:03:48.507Z,3.20
2019-05-25T14:06:25.279Z,2.90
2019-05-25T14:08:58.757Z,3.35
2019-05-25T14:11:33.932Z,2.90
2019-05-25T14:14:08.719Z,3.45
2019-05-25T14:16:42.952Z,3.10
2019-05-25T14:19:18.262Z,2.80
2019-05-25T14:21:52.853Z,2.72
2019-05-25T14:24:26.675Z,2.87
2019-05-25T14:27:00.261Z,2.62
2019-05-25T14:29:34.035Z,2.90
2019-05-25T14:32:07.724Z,2.80
2019-05-25T14:34:42.840Z,2.70
2019-05-25T14:37:16.594Z,2.80
2019-05-25T14:39:53.152Z,2.87
2019-05-25T14:42:29.318Z,2.77
2019-05-25T14:45:13.142Z,2.67
2019-05-25T14:47:48.685Z,2.43
2019-05-25T14:50:23.197Z,2.65
2019-05-25T14:52:58.566Z,2.20
2019-05-25T14:55:32.403Z,2.42
2019-05-25T14:58:07.992Z,2.30
2019-05-25T15:00:42.132Z,2.47
2019-05-25T15:03:15.448Z,2.30
2019-05-25T15:05:50.728Z,2.00
2019-05-25T15:08:26.642Z,2.00
2019-05-25T15:11:00.318Z,2.35
2019-05-25T15:13:35.889Z,2.20
2019-05-25T15:16:11.084Z,2.05
2019-05-25T15:18:44.682Z,2.20
2019-05-25T15:21:19.971Z,2.03
2019-05-25T15:23:55.081Z,2.13
2019-05-25T15:26:30.019Z,2.20
2019-05-25T15:29:03.820Z,2.30
2019-05-25T15:31:38.880Z,2.60
2019-05-25T15:34:12.525Z,2.50
2019-05-25T15:36:47.454Z,2.77
2019-05-25T15:39:22.645Z,2.30
2019-05-25T15:41:57.601Z,2.23
2019-05-25T15:44:33.045Z,2.30
2019-05-25T15:47:08.006Z,2.12
2019-05-25T15:49:41.692Z,2.43
2019-05-25T15:52:16.804Z,2.70
2019-05-25T15:54:51.905Z,2.80
2019-05-25T15:57:26.252Z,2.90
2019-05-25T16:00:01.271Z,2.95
2019-05-25T16:02:37.264Z,2.63
2019-05-25T16:05:11.429Z,2.70
2019-05-25T16:07:52.249Z,2.80
2019-05-25T16:10:26.026Z,3.10
2019-05-25T16:13:01.108Z,2.62
2019-05-25T16:15:34.647Z,2.77
2019-05-25T16:18:09.860Z,2.50
2019-05-25T16:20:45.041Z,2.50
2019-05-25T16:23:19.833Z,2.57
2019-05-25T16:25:54.805Z,2.90
2019-05-25T16:28:30.685Z,3.00
2019-05-25T16:31:05.732Z,2.60
2019-05-25T16:33:39.620Z,2.83
2019-05-25T16:36:13.394Z,2.93
2019-05-25T16:38:48.508Z,3.37
2019-05-25T16:41:22.089Z,2.80
2019-05-25T16:43:59.142Z,3.03
2019-05-25T16:46:32.160Z,2.80
2019-05-25T16:49:06.100Z,3.10
2019-05-25T16:51:41.502Z,3.53
2019-05-25T16:54:16.503Z,3.40
2019-05-25T16:56:51.656Z,3.97
2019-05-25T16:59:25.311Z,3.70
2019-05-25T17:02:00.525Z,3.17
2019-05-25T17:04:35.606Z,3.02
2019-05-25T17:07:10.488Z,2.95
2019-05-25T17:09:44.409Z,3.10
2019-05-25T17:12:17.949Z,2.80
2019-05-25T17:14:51.701Z,2.77
2019-05-25T17:17:26.570Z,2.43
2019-05-25T17:20:00.214Z,2.92
2019-05-25T17:22:33.657Z,2.58
2019-05-25T17:25:08.872Z,2.53
2019-05-25T17:27:43.855Z,2.50
2019-05-25T17:30:19.422Z,3.07
2019-05-25T17:32:53.946Z,2.67
2019-05-25T17:35:29.123Z,2.60
2019-05-25T17:38:02.727Z,2.73
2019-05-25T17:40:37.988Z,2.80
2019-05-25T17:43:13.682Z,2.80
2019-05-25T17:45:48.963Z,3.10
2019-05-25T17:48:22.368Z,3.40
2019-05-25T17:50:56.158Z,3.67
2019-05-25T17:53:29.771Z,3.40
2019-05-25T17:56:04.817Z,3.50
2019-05-25T17:58:40.065Z,3.00
2019-05-25T18:01:15.466Z,2.80
2019-05-25T18:04:04.868Z,2.80
2019-05-25T18:06:24.614Z,2.80
2019-05-25T18:08:58.443Z,2.80
2019-05-25T18:11:33.539Z,2.77
2019-05-25T18:14:07.744Z,2.50
2019-05-25T18:16:43.357Z,2.67
2019-05-25T18:19:18.792Z,3.00
2019-05-25T18:21:52.581Z,2.80
2019-05-25T18:24:28.416Z,2.57
2019-05-25T18:27:01.991Z,2.65
2019-05-25T18:29:36.185Z,2.67
2019-05-25T18:32:11.335Z,2.92
2019-05-25T18:34:43.362Z,2.80
2019-05-25T18:37:18.359Z,2.80
2019-05-25T18:39:52.198Z,2.90
2019-05-25T18:42:29.495Z,2.80
2019-05-25T18:45:02.054Z,3.43
2019-05-25T18:47:35.905Z,4.45
2019-05-25T18:50:14.923Z,5.83
2019-05-25T18:52:49.125Z,3.83
2019-05-25T18:55:23.386Z,3.13
2019-05-25T18:57:56.985Z,4.27
2019-05-25T19:00:33.750Z,3.83
2019-05-25T19:03:07.702Z,4.00
2019-05-25T19:05:42.742Z,4.33
2019-05-25T19:08:16.275Z,4.57
2019-05-25T19:10:52.666Z,4.17
2019-05-25T19:13:27.872Z,4.40
2019-05-25T19:16:02.764Z,3.90
2019-05-25T19:18:38.196Z,3.83
2019-05-25T19:21:13.282Z,3.85
2019-05-25T19:23:47.293Z,3.27
2019-05-25T19:26:22.475Z,3.30
2019-05-25T19:28:55.995Z,3.60
2019-05-25T19:31:31.208Z,3.30
2019-05-25T19:34:06.971Z,2.87
2019-05-25T19:36:42.636Z,2.97
2019-05-25T19:39:16.224Z,2.93
2019-05-25T19:41:50.379Z,2.80
2019-05-25T19:44:26.503Z,2.67
2019-05-25T19:47:00.761Z,2.60
2019-05-25T19:49:36.264Z,2.70
2019-05-25T19:52:11.515Z,2.70
2019-05-25T19:54:46.867Z,2.37
2019-05-25T19:57:20.800Z,6.20
2019-05-25T19:59:56.172Z,6.10
2019-05-25T20:02:31.793Z,4.50
2019-05-25T20:05:15.724Z,3.33
2019-05-25T20:07:41.245Z,2.93
2019-05-25T20:10:15.499Z,2.60
2019-05-25T20:12:50.934Z,2.37
2019-05-25T20:15:26.473Z,2.52
2019-05-25T20:18:01.651Z,2.40
2019-05-25T20:20:36.704Z,2.60
2019-05-25T20:23:11.785Z,2.60
2019-05-25T20:25:45.528Z,2.70
2019-05-25T20:28:20.691Z,2.60
2019-05-25T20:30:54.978Z,2.50
2019-05-25T20:33:28.718Z,2.53
2019-05-25T20:36:03.865Z,2.60
2019-05-25T20:38:37.552Z,2.75
2019-05-25T20:41:11.256Z,3.13
2019-05-25T20:43:45.172Z,2.87
2019-05-25T20:46:19.910Z,2.80
2019-05-25T20:48:53.752Z,3.20
2019-05-25T20:51:28.331Z,3.10
2019-05-25T20:54:03.835Z,2.90
2019-05-25T20:56:39.032Z,3.17
2019-05-25T20:59:12.566Z,2.65
2019-05-25T21:01:48.133Z,4.33
2019-05-25T21:04:23.269Z,3.60
2019-05-25T21:06:58.484Z,3.20
2019-05-25T21:09:32.891Z,3.60
2019-05-25T21:12:09.800Z,3.52
2019-05-25T21:14:43.502Z,3.53
2019-05-25T21:17:18.931Z,3.77
2019-05-25T21:19:54.137Z,3.83
2019-05-25T21:22:29.396Z,3.93
2019-05-25T21:25:05.997Z,4.33
2019-05-25T21:27:39.912Z,4.08
2019-05-25T21:30:15.341Z,3.77
2019-05-25T21:32:50.750Z,3.90
2019-05-25T21:35:26.642Z,4.27
2019-05-25T21:38:00.450Z,3.90
2019-05-25T21:40:33.939Z,3.90
2019-05-25T21:43:08.820Z,3.67
2019-05-25T21:45:44.010Z,3.90
2019-05-25T21:48:19.103Z,4.13
2019-05-25T21:50:53.949Z,4.17
2019-05-25T21:53:29.460Z,3.70
2019-05-25T21:56:04.415Z,3.80
2019-05-25T21:58:40.260Z,4.10
2019-05-25T22:01:14.256Z,4.00
2019-05-25T22:03:49.914Z,4.00
2019-05-25T22:06:24.545Z,4.40
2019-05-25T22:08:59.880Z,3.70
2019-05-25T22:11:34.861Z,4.33
2019-05-25T22:14:08.810Z,4.30
2019-05-25T22:16:43.832Z,5.08
2019-05-25T22:19:19.038Z,4.90
2019-05-25T22:21:52.675Z,5.07
2019-05-25T22:24:27.693Z,5.93
2019-05-25T22:27:01.570Z,5.20
2019-05-25T22:29:36.848Z,5.33
2019-05-25T22:32:10.655Z,5.20
2019-05-25T22:34:45.528Z,5.80
2019-05-25T22:37:19.449Z,5.93
2019-05-25T22:39:54.365Z,5.57
2019-05-25T22:42:28.149Z,5.70
2019-05-25T22:45:02.037Z,5.40
2019-05-25T22:47:35.584Z,6.37
2019-05-25T22:50:09.742Z,5.60
2019-05-25T22:52:43.868Z,5.43
2019-05-25T22:55:18.879Z,5.30
2019-05-25T22:57:53.854Z,5.13
2019-05-25T23:00:27.553Z,5.60
2019-05-25T23:03:03.691Z,5.90
2019-05-25T23:05:37.461Z,5.08
2019-05-25T23:08:11.176Z,5.40
2019-05-25T23:10:44.885Z,5.07
2019-05-25T23:13:18.631Z,5.97
2019-05-25T23:15:53.924Z,6.13
2019-05-25T23:18:27.637Z,6.60
2019-05-25T23:21:01.288Z,6.17
2019-05-25T23:23:36.438Z,6.70
2019-05-25T23:26:10.004Z,6.20
2019-05-25T23:28:44.053Z,6.53
2019-05-25T23:31:19.250Z,7.03
2019-05-25T23:33:52.727Z,7.07
2019-05-25T23:36:27.609Z,7.00
2019-05-25T23:39:02.634Z,7.05
2019-05-25T23:41:36.353Z,6.53
2019-05-25T23:44:10.388Z,7.30
2019-05-25T23:46:44.195Z,6.80
2019-05-25T23:49:18.063Z,7.53
2019-05-25T23:51:51.607Z,7.20
2019-05-25T23:54:26.012Z,7.20
2019-05-25T23:56:59.790Z,6.97
2019-05-25T23:59:35.232Z,6.93
